Time;durP1;ratioP1;P1;durP2;ratioP2;P2;SDS_P1;SDS_P2;PMS_P1;PMS_P2;Temp;Humidity;BMP_temperature;BMP_pressure;BME280_temperature;BME280_humidity;BME280_pressure;Samples;Min_cycle;Max_cycle;Signal;HPM_P1;HPM_P2
2021/11/19 00:02:12;;;;;;;16.90;6.72;;;11.30;99.90;;;;;;5046675;28;20041;-75
2021/11/19 00:04:38;;;;;;;23.63;8.43;;;11.30;99.90;;;;;;5038595;28;20034;-73
2021/11/19 00:07:04;;;;;;;18.70;7.95;;;11.30;99.90;;;;;;5027088;28;20080;-72
2021/11/19 00:09:31;;;;;;;25.55;8.35;;;11.30;99.90;;;;;;5027091;28;20079;-73
2021/11/19 00:11:57;;;;;;;22.33;7.47;;;11.30;99.90;;;;;;5025838;28;20026;-71
2021/11/19 00:14:24;;;;;;;20.45;7.63;;;11.30;99.90;;;;;;5027232;28;20036;-76
2021/11/19 00:16:57;;;;;;;15.68;6.68;;;11.30;99.90;;;;;;5027280;28;20137;-76
2021/11/19 00:19:24;;;;;;;18.15;6.47;;;11.30;99.90;;;;;;5026990;28;20091;-74
2021/11/19 00:21:51;;;;;;;19.45;8.05;;;11.30;99.90;;;;;;5025826;28;20088;-75
2021/11/19 00:24:16;;;;;;;27.38;7.68;;;11.30;99.90;;;;;;5026844;28;20041;-74
2021/11/19 00:26:43;;;;;;;18.17;6.18;;;11.30;99.90;;;;;;5027124;28;20033;-73
2021/11/19 00:29:11;;;;;;;20.85;7.55;;;11.30;99.90;;;;;;5025763;28;20038;-74
2021/11/19 00:31:37;;;;;;;14.38;7.47;;;11.30;99.90;;;;;;5025386;28;20053;-72
2021/11/19 00:34:03;;;;;;;21.58;7.30;;;11.30;99.90;;;;;;5024588;28;20124;-73
2021/11/19 00:36:32;;;;;;;19.02;7.65;;;11.30;99.90;;;;;;5025292;28;20097;-71
2021/11/19 00:38:59;;;;;;;15.13;6.72;;;11.30;99.90;;;;;;5026618;28;20033;-72
2021/11/19 00:41:26;;;;;;;18.60;7.20;;;11.30;99.90;;;;;;5026477;28;20054;-74
2021/11/19 00:43:52;;;;;;;18.75;8.02;;;11.40;99.90;;;;;;5025369;28;20034;-75
2021/11/19 00:46:19;;;;;;;23.10;7.47;;;11.40;99.90;;;;;;5025396;28;20018;-75
2021/11/19 00:48:46;;;;;;;18.50;7.50;;;11.30;99.90;;;;;;5026554;28;20061;-74
2021/11/19 00:51:18;;;;;;;19.75;6.75;;;11.30;99.90;;;;;;5026491;28;20041;-71
2021/11/19 00:53:47;;;;;;;20.10;7.55;;;11.30;99.90;;;;;;5026475;28;20052;-72
2021/11/19 00:56:17;;;;;;;17.13;6.55;;;11.40;99.90;;;;;;5026419;28;20026;-71
2021/11/19 00:58:43;;;;;;;11.48;6.03;;;11.40;99.90;;;;;;5026259;28;20025;-73
2021/11/19 01:01:14;;;;;;;19.23;7.03;;;11.40;99.90;;;;;;5024907;28;20054;-72
2021/11/19 01:03:40;;;;;;;20.20;8.18;;;11.40;99.90;;;;;;5026308;28;20057;-74
2021/11/19 01:06:06;;;;;;;12.40;6.53;;;11.40;99.90;;;;;;5025703;28;20030;-71
2021/11/19 01:08:32;;;;;;;19.63;7.13;;;11.40;99.90;;;;;;5025773;28;20030;-71
2021/11/19 01:11:01;;;;;;;22.13;6.22;;;11.40;99.90;;;;;;5024736;28;20098;-71
2021/11/19 01:13:29;;;;;;;24.80;6.47;;;11.40;99.90;;;;;;5026461;28;20042;-74
2021/11/19 01:16:02;;;;;;;21.05;7.55;;;11.40;99.90;;;;;;5025889;28;20496;-73
2021/11/19 01:18:34;;;;;;;26.92;6.38;;;11.40;99.90;;;;;;5025782;28;20026;-73
2021/11/19 01:21:28;;;;;;;13.80;7.03;;;11.40;99.90;;;;;;5025979;28;20026;-74
2021/11/19 01:23:55;;;;;;;16.77;6.80;;;11.40;99.90;;;;;;5033125;28;20036;-69
2021/11/19 01:26:26;;;;;;;11.32;5.90;;;11.40;99.90;;;;;;5044216;28;20059;-73
2021/11/19 01:28:58;;;;;;;19.67;6.63;;;11.50;99.90;;;;;;5044324;28;20048;-75
2021/11/19 01:31:28;;;;;;;19.80;5.85;;;11.50;99.90;;;;;;5044102;28;20029;-73
2021/11/19 01:33:53;;;;;;;24.77;6.28;;;11.50;99.90;;;;;;5045171;28;20060;-72
2021/11/19 01:36:20;;;;;;;14.95;6.55;;;11.40;99.90;;;;;;5044252;28;20382;-72
2021/11/19 01:38:47;;;;;;;12.35;5.88;;;11.50;99.90;;;;;;5044820;28;20072;-74
2021/11/19 01:41:27;;;;;;;23.35;6.28;;;11.50;99.90;;;;;;5045661;28;20033;-73
2021/11/19 01:43:55;;;;;;;15.15;5.50;;;11.50;99.90;;;;;;5044029;28;20036;-74
2021/11/19 01:46:29;;;;;;;11.45;6.18;;;11.50;99.90;;;;;;5045258;28;20029;-73
2021/11/19 01:48:55;;;;;;;15.03;5.53;;;11.50;99.90;;;;;;5043771;28;20036;-72
2021/11/19 01:51:30;;;;;;;21.90;7.05;;;11.50;99.90;;;;;;5040498;28;20280;-73
2021/11/19 01:54:01;;;;;;;22.30;6.93;;;11.50;99.90;;;;;;5025317;28;20045;-72
2021/11/19 01:56:43;;;;;;;14.48;6.63;;;11.50;99.90;;;;;;5025086;28;20054;-71
2021/11/19 01:59:18;;;;;;;14.00;5.85;;;11.50;99.90;;;;;;5025104;28;20034;-73
2021/11/19 02:01:48;;;;;;;14.40;5.32;;;11.50;99.90;;;;;;5025317;28;20033;-72
2021/11/19 02:04:21;;;;;;;15.85;5.35;;;11.50;99.90;;;;;;5025325;28;20022;-74
2021/11/19 02:06:54;;;;;;;10.10;5.63;;;11.50;99.90;;;;;;5025299;28;20108;-72
2021/11/19 02:09:42;;;;;;;16.52;6.03;;;11.50;99.90;;;;;;5025386;28;20052;-73
2021/11/19 02:12:30;;;;;;;17.70;6.15;;;11.50;99.90;;;;;;5018814;28;20135;-72
2021/11/19 02:15:14;;;;;;;13.82;5.78;;;11.50;99.90;;;;;;5024792;28;20030;-73
2021/11/19 02:17:42;;;;;;;16.98;6.57;;;11.50;99.90;;;;;;5024887;28;20037;-73
2021/11/19 02:20:12;;;;;;;16.30;6.45;;;11.60;99.90;;;;;;5024674;28;20121;-75
2021/11/19 02:22:47;;;;;;;16.63;6.72;;;11.60;99.90;;;;;;5023369;28;20464;-75
2021/11/19 02:25:17;;;;;;;;;;;11.60;99.90;;;;;;5025514;28;20021;-77
2021/11/19 02:27:51;;;;;;;11.57;5.75;;;11.60;99.90;;;;;;5040005;28;19905;-76
2021/11/19 02:30:41;;;;;;;10.52;5.20;;;11.60;99.90;;;;;;5023333;28;20052;-74
2021/11/19 02:33:09;;;;;;;13.13;5.93;;;11.60;99.90;;;;;;5024287;28;20058;-73
2021/11/19 02:35:42;;;;;;;11.80;5.43;;;11.60;99.90;;;;;;5022978;28;20034;-73
2021/11/19 02:38:11;;;;;;;18.70;6.35;;;11.60;99.90;;;;;;5024573;28;20033;-73
2021/11/19 02:40:42;;;;;;;14.07;6.30;;;11.60;99.90;;;;;;5024588;28;20042;-75
2021/11/19 02:43:15;;;;;;;16.67;7.28;;;11.70;99.90;;;;;;5024453;28;20041;-74
2021/11/19 02:45:47;;;;;;;15.35;7.15;;;11.70;99.90;;;;;;5025147;28;20049;-73
2021/11/19 02:48:18;;;;;;;23.45;6.57;;;11.70;99.90;;;;;;5025247;28;20034;-73
2021/11/19 02:50:45;;;;;;;20.83;6.03;;;11.70;99.90;;;;;;5026918;28;20041;-73
2021/11/19 02:53:12;;;;;;;25.77;6.10;;;11.70;99.90;;;;;;5031285;28;20045;-73
2021/11/19 02:55:42;;;;;;;15.77;5.53;;;11.70;99.90;;;;;;5029544;28;20026;-71
2021/11/19 02:58:10;;;;;;;17.15;6.70;;;11.70;99.90;;;;;;5029701;28;20097;-70
2021/11/19 03:00:55;;;;;;;16.73;5.90;;;11.70;99.90;;;;;;5029499;28;20026;-75
2021/11/19 03:03:21;;;;;;;18.83;5.40;;;11.70;99.90;;;;;;5030850;28;20049;-73
2021/11/19 03:05:46;;;;;;;13.57;5.38;;;11.70;99.90;;;;;;5029575;28;20029;-75
2021/11/19 03:08:12;;;;;;;16.65;6.40;;;11.70;99.90;;;;;;5029711;28;20061;-72
2021/11/19 03:10:47;;;;;;;17.50;4.65;;;11.70;99.90;;;;;;5033225;28;20014;-75
2021/11/19 03:13:16;;;;;;;13.10;4.60;;;11.70;99.90;;;;;;5050805;28;20052;-73
2021/11/19 03:15:45;;;;;;;15.63;6.13;;;11.70;99.90;;;;;;5048995;28;20036;-73
2021/11/19 03:18:15;;;;;;;15.45;5.53;;;11.70;99.90;;;;;;5050723;28;20388;-74
2021/11/19 03:20:43;;;;;;;15.30;5.88;;;11.80;99.90;;;;;;5049193;28;20090;-73
2021/11/19 03:23:09;;;;;;;9.35;4.82;;;11.70;99.90;;;;;;5050466;28;20038;-74
2021/11/19 03:25:38;;;;;;;16.98;5.32;;;11.80;99.90;;;;;;5050528;28;20029;-73
2021/11/19 03:28:09;;;;;;;19.45;6.13;;;11.80;99.90;;;;;;5049065;28;20022;-73
2021/11/19 03:30:37;;;;;;;13.70;4.90;;;11.80;99.90;;;;;;5050168;28;20033;-72
2021/11/19 03:33:04;;;;;;;14.82;6.47;;;11.80;99.90;;;;;;5050101;28;20103;-71
2021/11/19 03:35:39;;;;;;;13.80;6.07;;;11.80;99.90;;;;;;5050157;28;20041;-73
2021/11/19 03:38:05;;;;;;;21.27;6.32;;;11.80;99.90;;;;;;5050587;28;20088;-76
2021/11/19 03:40:35;;;;;;;12.32;5.10;;;11.80;99.90;;;;;;5048932;28;20025;-73
2021/11/19 03:43:03;;;;;;;15.80;5.20;;;11.80;99.90;;;;;;5050240;28;20060;-74
2021/11/19 03:45:35;;;;;;;16.88;6.47;;;11.80;99.90;;;;;;5050504;28;20034;-76
2021/11/19 03:48:00;;;;;;;21.23;6.45;;;11.80;99.90;;;;;;5049875;28;20080;-74
2021/11/19 03:50:40;;;;;;;18.42;5.32;;;11.80;99.90;;;;;;5050452;28;20029;-73
2021/11/19 03:53:07;;;;;;;11.63;5.30;;;11.80;99.90;;;;;;5048922;28;20075;-73
2021/11/19 03:55:39;;;;;;;12.05;5.60;;;11.80;99.90;;;;;;5050188;28;20030;-71
2021/11/19 03:58:05;;;;;;;15.15;4.88;;;11.80;99.90;;;;;;5050326;28;20029;-74
2021/11/19 04:00:38;;;;;;;11.23;5.35;;;11.80;99.90;;;;;;5050098;28;20025;-73
2021/11/19 04:03:05;;;;;;;13.90;5.47;;;11.90;99.90;;;;;;5047048;28;20030;-74
2021/11/19 04:05:33;;;;;;;18.13;5.18;;;11.90;99.90;;;;;;5046894;28;20048;-75
2021/11/19 04:07:59;;;;;;;17.95;4.97;;;11.90;99.90;;;;;;5045744;28;20044;-73
2021/11/19 04:10:32;;;;;;;18.15;5.22;;;11.90;99.90;;;;;;5046752;28;20040;-73
2021/11/19 04:12:58;;;;;;;13.50;6.05;;;12.00;99.90;;;;;;5046740;28;20099;-74
2021/11/19 04:15:28;;;;;;;15.40;5.63;;;11.90;99.90;;;;;;5045392;28;20060;-76
2021/11/19 04:17:54;;;;;;;24.35;5.95;;;11.90;99.90;;;;;;5045638;28;20033;-74
2021/11/19 04:20:24;;;;;;;17.38;5.53;;;11.90;99.90;;;;;;5046336;28;20052;-74
2021/11/19 04:22:51;;;;;;;12.15;5.47;;;11.90;99.90;;;;;;5046829;28;20025;-70
2021/11/19 04:25:19;;;;;;;11.60;5.45;;;11.90;99.90;;;;;;5047037;28;20033;-74
2021/11/19 04:27:46;;;;;;;15.23;4.57;;;11.90;99.90;;;;;;5045362;28;20022;-72
2021/11/19 04:30:20;;;;;;;24.25;5.95;;;11.90;99.90;;;;;;5046836;28;20041;-73
2021/11/19 04:32:46;;;;;;;17.73;5.65;;;11.90;99.90;;;;;;5044973;28;20073;-75
2021/11/19 04:35:12;;;;;;;10.00;4.90;;;12.00;99.90;;;;;;5046597;28;20038;-72
2021/11/19 04:37:44;;;;;;;10.10;4.53;;;12.00;99.90;;;;;;5046390;28;20052;-76
2021/11/19 04:40:12;;;;;;;15.20;5.57;;;11.90;99.90;;;;;;5045328;28;20032;-75
2021/11/19 04:42:39;;;;;;;15.98;5.20;;;11.90;99.90;;;;;;5046293;28;20029;-73
2021/11/19 04:45:08;;;;;;;9.38;5.03;;;11.90;99.90;;;;;;5046282;28;20029;-74
2021/11/19 04:47:33;;;;;;;8.68;3.97;;;12.00;99.90;;;;;;5046218;28;20107;-74
2021/11/19 04:50:07;;;;;;;10.65;5.18;;;12.00;99.90;;;;;;5046118;28;20025;-75
2021/11/19 04:52:33;;;;;;;12.10;5.38;;;12.00;99.90;;;;;;5044187;28;20494;-73
2021/11/19 04:54:59;;;;;;;17.08;4.55;;;12.00;99.90;;;;;;5046233;28;20035;-74
2021/11/19 04:57:24;;;;;;;13.68;5.05;;;12.00;99.90;;;;;;5046411;28;20087;-74
2021/11/19 04:59:56;;;;;;;16.08;5.68;;;12.00;99.90;;;;;;5046611;28;20040;-74
2021/11/19 05:02:22;;;;;;;8.40;4.28;;;12.00;99.90;;;;;;5044737;28;20048;-75
2021/11/19 05:04:49;;;;;;;26.15;5.35;;;12.00;99.90;;;;;;5046262;28;20477;-76
2021/11/19 05:07:15;;;;;;;12.27;4.28;;;11.90;99.90;;;;;;5044804;28;20028;-76
2021/11/19 05:09:41;;;;;;;27.48;4.68;;;12.00;99.90;;;;;;5045925;28;20033;-77
2021/11/19 05:12:22;;;;;;;14.70;4.22;;;12.00;99.90;;;;;;5045803;28;20074;-76
2021/11/19 05:14:49;;;;;;;7.47;4.45;;;12.00;99.90;;;;;;5045731;28;20055;-77
2021/11/19 05:17:17;;;;;;;9.50;4.32;;;12.00;99.90;;;;;;5044961;28;20116;-75
2021/11/19 05:19:43;;;;;;;9.20;3.80;;;12.00;99.90;;;;;;5045899;28;20040;-76
2021/11/19 05:22:11;;;;;;;13.40;3.97;;;12.00;99.90;;;;;;5044176;28;20029;-76
2021/11/19 05:24:38;;;;;;;10.68;3.83;;;12.00;99.90;;;;;;5045012;28;20025;-74
2021/11/19 05:27:04;;;;;;;14.77;4.18;;;12.00;99.90;;;;;;5044346;28;20049;-74
2021/11/19 05:29:31;;;;;;;6.75;3.45;;;12.10;99.90;;;;;;5043986;28;20083;-73
2021/11/19 05:31:57;;;;;;;9.93;4.90;;;12.10;99.90;;;;;;5044975;28;20025;-75
2021/11/19 05:34:24;;;;;;;8.48;3.45;;;12.10;99.90;;;;;;5045367;28;20044;-74
2021/11/19 05:36:51;;;;;;;14.70;4.22;;;12.10;99.90;;;;;;5043958;28;20162;-73
2021/11/19 05:39:19;;;;;;;6.97;3.40;;;12.00;99.90;;;;;;5044068;28;20036;-77
2021/11/19 05:41:45;;;;;;;22.83;3.85;;;12.10;99.90;;;;;;5044186;28;20037;-76
2021/11/19 05:44:11;;;;;;;17.15;3.85;;;12.10;99.90;;;;;;5043813;28;20033;-76
2021/11/19 05:46:40;;;;;;;9.80;4.57;;;12.10;99.90;;;;;;5045173;28;20039;-74
2021/11/19 05:49:16;;;;;;;10.73;4.57;;;12.10;99.90;;;;;;5045076;28;20032;-75
2021/11/19 05:51:43;;;;;;;18.38;4.90;;;12.00;99.90;;;;;;5045343;28;20025;-75
2021/11/19 05:54:12;;;;;;;10.25;4.00;;;12.00;99.90;;;;;;5043526;28;20041;-74
2021/11/19 05:56:38;;;;;;;10.27;4.13;;;12.00;99.90;;;;;;5042939;28;20036;-74
2021/11/19 05:59:04;;;;;;;15.05;4.93;;;12.00;99.90;;;;;;5045004;28;20025;-74
2021/11/19 06:01:30;;;;;;;11.80;4.28;;;12.00;99.90;;;;;;5043737;28;20029;-73
2021/11/19 06:03:56;;;;;;;25.40;5.97;;;12.00;99.90;;;;;;5043428;28;20029;-75
2021/11/19 06:06:23;;;;;;;11.65;4.10;;;12.00;99.90;;;;;;5044890;28;20030;-74
2021/11/19 06:08:49;;;;;;;11.32;5.07;;;12.00;99.90;;;;;;5043561;28;20053;-73
2021/11/19 06:11:23;;;;;;;10.75;5.13;;;12.00;99.90;;;;;;5044895;28;20022;-76
2021/11/19 06:13:55;;;;;;;14.77;6.13;;;12.00;99.90;;;;;;5044911;28;20045;-75
2021/11/19 06:16:30;;;;;;;15.20;5.60;;;12.00;99.90;;;;;;5043347;28;20029;-75
2021/11/19 06:19:01;;;;;;;12.15;4.60;;;12.00;99.90;;;;;;5044603;28;20037;-74
2021/11/19 06:21:39;;;;;;;9.65;4.35;;;12.10;99.90;;;;;;5044600;28;20366;-73
2021/11/19 06:24:12;;;;;;;9.20;3.95;;;12.00;99.90;;;;;;5043254;28;20101;-72
2021/11/19 06:26:41;;;;;;;17.10;4.75;;;12.00;99.90;;;;;;5042568;28;20499;-74
2021/11/19 06:29:08;;;;;;;9.88;4.18;;;12.00;99.90;;;;;;5043802;28;20040;-73
2021/11/19 06:31:42;;;;;;;10.43;3.80;;;12.00;99.90;;;;;;5044372;28;20478;-75
2021/11/19 06:34:09;;;;;;;11.02;4.95;;;12.00;99.90;;;;;;5043922;28;20045;-73
2021/11/19 06:36:35;;;;;;;12.00;4.93;;;12.00;99.90;;;;;;5043093;28;20080;-74
2021/11/19 06:39:01;;;;;;;9.40;4.88;;;12.00;99.90;;;;;;5043017;28;20025;-75
2021/11/19 06:41:28;;;;;;;10.05;4.72;;;12.10;99.90;;;;;;5044331;28;20026;-74
2021/11/19 06:43:53;;;;;;;8.70;4.47;;;12.00;99.90;;;;;;5042831;28;20025;-75
2021/11/19 06:46:25;;;;;;;7.13;4.05;;;12.10;99.90;;;;;;5044354;28;20034;-77
2021/11/19 06:48:51;;;;;;;6.93;3.97;;;12.00;99.90;;;;;;5044141;28;20040;-75
2021/11/19 06:51:19;;;;;;;13.65;4.80;;;12.10;99.90;;;;;;5043093;28;20474;-72
2021/11/19 06:53:47;;;;;;;10.43;4.32;;;12.10;99.90;;;;;;5044237;28;20033;-72
2021/11/19 06:56:14;;;;;;;12.65;4.20;;;12.10;99.90;;;;;;5043047;28;20029;-73
2021/11/19 06:58:39;;;;;;;14.60;3.95;;;12.10;99.90;;;;;;5044093;28;20136;-74
2021/11/19 07:01:06;;;;;;;15.55;4.60;;;12.10;99.90;;;;;;5042302;28;20037;-76
2021/11/19 07:03:35;;;;;;;9.93;4.05;;;12.10;99.90;;;;;;5044433;28;20036;-76
2021/11/19 07:06:01;;;;;;;13.20;4.43;;;12.10;99.90;;;;;;5042807;28;20028;-74
2021/11/19 07:08:28;;;;;;;9.27;4.28;;;12.10;99.90;;;;;;5040601;28;20081;-75
2021/11/19 07:10:59;;;;;;;21.13;4.57;;;12.10;99.90;;;;;;5038217;28;20583;-78
2021/11/19 07:13:25;;;;;;;8.48;4.03;;;12.10;99.90;;;;;;5042104;28;20033;-72
2021/11/19 07:15:51;;;;;;;10.50;5.05;;;12.10;99.90;;;;;;5043508;28;20524;-73
2021/11/19 07:18:18;;;;;;;11.77;5.18;;;12.10;99.90;;;;;;5043089;28;20022;-74
2021/11/19 07:20:47;;;;;;;13.25;4.78;;;12.10;99.90;;;;;;5030814;28;20096;-74
2021/11/19 07:23:17;;;;;;;11.40;4.60;;;12.10;99.90;;;;;;5035555;28;20140;-76
2021/11/19 07:25:43;;;;;;;11.10;4.40;;;12.10;99.90;;;;;;5041997;28;20025;-74
2021/11/19 07:28:10;;;;;;;8.25;3.90;;;12.10;99.90;;;;;;5049842;28;20052;-74
2021/11/19 07:30:59;;;;;;;10.80;4.55;;;12.10;99.90;;;;;;5036454;28;20045;-74
2021/11/19 07:33:26;;;;;;;14.23;4.95;;;12.20;99.90;;;;;;5022476;28;20050;-76
2021/11/19 07:35:53;;;;;;;11.48;4.10;;;12.20;99.90;;;;;;5039064;28;20072;-75
2021/11/19 07:38:22;;;;;;;14.95;4.97;;;12.20;99.90;;;;;;5026966;28;20029;-74
2021/11/19 07:40:49;;;;;;;8.63;4.00;;;12.20;99.90;;;;;;5043316;28;20025;-76
2021/11/19 07:43:17;;;;;;;9.35;4.85;;;12.10;99.90;;;;;;5031990;28;20094;-75
2021/11/19 07:45:44;;;;;;;7.90;4.03;;;12.10;99.90;;;;;;5046543;28;20029;-74
2021/11/19 07:48:13;;;;;;;10.55;4.50;;;12.20;99.90;;;;;;5043507;28;20033;-75
2021/11/19 07:50:42;;;;;;;9.05;4.45;;;12.20;99.90;;;;;;5026342;28;20056;-74
2021/11/19 07:53:07;;;;;;;40.45;5.28;;;12.20;99.90;;;;;;5036121;28;20046;-78
2021/11/19 07:55:34;;;;;;;11.85;4.65;;;12.20;99.90;;;;;;5032670;28;20041;-76
2021/11/19 07:58:00;;;;;;;11.65;3.55;;;12.20;99.90;;;;;;5046001;28;20030;-75
2021/11/19 08:00:29;;;;;;;13.98;5.28;;;12.20;99.90;;;;;;5037191;28;20052;-75
2021/11/19 08:02:55;;;;;;;13.38;4.85;;;12.20;99.90;;;;;;5031592;28;20525;-74
2021/11/19 08:05:22;;;;;;;11.05;4.65;;;12.20;99.90;;;;;;5028655;28;20027;-76
2021/11/19 08:07:48;;;;;;;7.00;4.40;;;12.30;99.90;;;;;;5036319;28;20075;-75
2021/11/19 08:10:14;;;;;;;9.05;4.03;;;12.20;99.90;;;;;;5038037;28;20049;-74
2021/11/19 08:12:40;;;;;;;13.02;4.13;;;12.20;99.90;;;;;;5036559;28;20049;-73
2021/11/19 08:15:07;;;;;;;10.65;4.53;;;12.20;99.90;;;;;;5042766;28;20082;-75
2021/11/19 08:17:36;;;;;;;23.13;5.22;;;12.20;99.90;;;;;;5046175;28;20033;-74
2021/11/19 08:20:06;;;;;;;19.27;4.90;;;12.30;99.90;;;;;;5040517;28;20498;-74
2021/11/19 08:22:33;;;;;;;13.27;4.65;;;12.30;99.90;;;;;;5046973;28;20040;-74
2021/11/19 08:24:59;;;;;;;17.25;4.32;;;12.30;99.90;;;;;;5046641;28;20018;-73
2021/11/19 08:27:35;;;;;;;9.60;4.22;;;12.30;99.90;;;;;;5032028;28;20186;-76
2021/11/19 08:30:05;;;;;;;19.60;5.53;;;12.20;99.90;;;;;;5026215;28;20216;-73
2021/11/19 08:32:31;;;;;;;6.85;3.78;;;12.30;99.90;;;;;;5046514;28;20104;-76
2021/11/19 08:34:57;;;;;;;7.63;4.68;;;12.30;99.90;;;;;;5044995;28;20029;-74
2021/11/19 08:37:25;;;;;;;23.17;4.05;;;12.30;99.90;;;;;;5046349;28;20025;-77
2021/11/19 08:39:52;;;;;;;17.23;4.50;;;12.30;99.90;;;;;;5046881;28;20029;-78
2021/11/19 08:42:20;;;;;;;17.65;7.60;;;12.30;99.90;;;;;;5046511;28;20022;-76
2021/11/19 08:44:47;;;;;;;11.60;4.70;;;12.30;99.90;;;;;;5046420;28;20068;-76
2021/11/19 08:47:14;;;;;;;20.05;4.32;;;12.30;99.90;;;;;;5038625;28;20116;-78
2021/11/19 08:49:41;;;;;;;10.68;4.30;;;12.40;99.90;;;;;;5025825;28;20030;-77
2021/11/19 08:52:11;;;;;;;14.90;5.25;;;12.30;99.90;;;;;;5025005;28;20038;-76
2021/11/19 08:54:37;;;;;;;13.32;4.05;;;12.30;99.90;;;;;;5027995;28;20029;-77
2021/11/19 08:57:07;;;;;;;7.95;4.18;;;12.40;99.90;;;;;;5035353;28;20041;-76
2021/11/19 08:59:35;;;;;;;19.35;4.38;;;12.30;99.90;;;;;;5037335;28;20029;-75
2021/11/19 09:02:02;;;;;;;5.97;3.50;;;12.40;99.90;;;;;;5045839;28;20370;-76
2021/11/19 09:04:29;;;;;;;17.23;4.78;;;12.30;99.90;;;;;;5044762;28;20029;-77
2021/11/19 09:06:56;;;;;;;16.27;4.85;;;12.30;99.90;;;;;;5043828;28;20036;-78
2021/11/19 09:09:26;;;;;;;11.65;5.22;;;12.40;99.90;;;;;;5024094;28;20034;-76
2021/11/19 09:11:53;;;;;;;16.70;5.28;;;12.40;99.90;;;;;;5024998;28;20033;-74
2021/11/19 09:14:19;;;;;;;9.68;4.05;;;12.40;99.90;;;;;;5024711;28;20057;-75
2021/11/19 09:17:11;;;;;;;10.00;4.88;;;12.40;99.90;;;;;;5026737;28;20484;-76
2021/11/19 09:20:02;;;;;;;17.05;4.47;;;12.40;99.90;;;;;;5030721;28;20608;-77
2021/11/19 09:22:50;;;;;;;16.17;4.70;;;12.40;99.90;;;;;;5026393;28;20033;-76
2021/11/19 09:25:19;;;;;;;6.45;4.22;;;12.40;99.90;;;;;;5024318;28;20026;-77
2021/11/19 09:27:46;;;;;;;13.80;4.85;;;12.40;99.90;;;;;;5024352;28;20086;-73
2021/11/19 09:30:26;;;;;;;20.05;5.68;;;12.40;99.90;;;;;;5042122;28;20136;-75
2021/11/19 09:32:54;;;;;;;14.20;4.97;;;12.40;99.90;;;;;;5044252;28;20049;-77
2021/11/19 09:35:28;;;;;;;16.08;5.38;;;12.40;99.90;;;;;;5044895;28;20117;-75
2021/11/19 09:37:54;;;;;;;17.77;4.40;;;12.40;99.90;;;;;;5053799;28;20032;-74
2021/11/19 09:40:35;;;;;;;20.52;4.95;;;12.40;99.90;;;;;;5062183;28;20414;-75
2021/11/19 09:43:34;;;;;;;8.95;4.57;;;12.40;99.90;;;;;;5042945;28;20060;-77
2021/11/19 09:46:25;;;;;;;16.60;5.25;;;12.40;99.90;;;;;;5025100;28;20124;-77
2021/11/19 09:49:10;;;;;;;17.05;4.40;;;12.50;99.90;;;;;;5043334;28;20120;-76
2021/11/19 09:51:54;;;;;;;;;;;12.50;99.90;;;;;;5042307;28;20091;-76
2021/11/19 09:54:48;;;;;;;14.13;4.13;;;12.50;99.90;;;;;;5031170;28;19921;-77
2021/11/19 09:57:32;;;;;;;11.15;4.50;;;12.50;99.90;;;;;;5042220;28;20052;-76
2021/11/19 10:00:20;;;;;;;13.18;4.38;;;12.50;99.90;;;;;;5042502;28;20029;-77
2021/11/19 10:03:17;;;;;;;8.82;4.30;;;12.60;99.90;;;;;;5040619;28;20033;-77
2021/11/19 10:06:11;;;;;;;22.67;4.50;;;12.60;99.90;;;;;;5037667;28;20033;-76
2021/11/19 10:08:47;;;;;;;9.52;4.43;;;12.60;99.90;;;;;;5037603;28;20037;-78
2021/11/19 10:11:31;;;;;;;10.40;4.35;;;12.60;99.90;;;;;;5042661;28;20037;-76
2021/11/19 10:14:06;;;;;;;21.88;5.68;;;12.60;99.90;;;;;;5033598;28;20503;-78
2021/11/19 10:16:58;;;;;;;10.65;4.60;;;12.70;99.90;;;;;;5045439;28;20022;-78
2021/11/19 10:19:48;;;;;;;12.40;5.28;;;12.70;99.90;;;;;;5038787;28;20033;-76
2021/11/19 10:22:14;;;;;;;7.32;3.85;;;12.70;99.90;;;;;;5025726;28;20037;-77
2021/11/19 10:25:01;;;;;;;13.38;5.18;;;12.80;99.90;;;;;;5025418;28;20533;-76
2021/11/19 10:27:30;;;;;;;32.75;5.38;;;12.80;99.90;;;;;;5025525;28;20029;-76
2021/11/19 10:30:07;;;;;;;19.00;4.85;;;12.80;99.90;;;;;;5025289;28;20026;-77
2021/11/19 10:32:33;;;;;;;18.02;4.45;;;12.80;99.90;;;;;;5023844;28;20114;-78
2021/11/19 10:35:52;;;;;;;13.65;3.53;;;12.80;99.90;;;;;;5026558;28;20022;-78
2021/11/19 10:38:30;;;;;;;9.25;4.00;;;12.80;99.90;;;;;;5006202;28;20022;-76
2021/11/19 10:41:33;;;;;;;10.57;5.20;;;12.90;99.90;;;;;;5074171;28;20040;-77
2021/11/19 10:44:15;;;;;;;8.60;4.00;;;12.90;99.90;;;;;;5044226;28;20033;-75
2021/11/19 10:47:11;;;;;;;15.27;4.53;;;13.00;99.90;;;;;;5034645;28;20049;-76
2021/11/19 10:50:00;;;;;;;9.25;3.45;;;13.00;99.90;;;;;;5022991;28;20042;-74
2021/11/19 10:52:25;;;;;;;11.60;4.22;;;13.00;99.90;;;;;;5023007;28;20064;-78
2021/11/19 10:55:17;;;;;;;17.52;5.22;;;13.00;99.90;;;;;;5032355;28;20030;-78
2021/11/19 10:58:05;;;;;;;11.25;3.50;;;12.90;99.90;;;;;;5029504;28;20026;-75
2021/11/19 11:00:58;;;;;;;7.15;3.28;;;13.00;99.90;;;;;;5041902;28;20433;-76
2021/11/19 11:03:34;;;;;;;8.95;3.53;;;13.00;99.90;;;;;;5037040;28;20029;-75
2021/11/19 11:06:17;;;;;;;7.82;3.38;;;13.00;99.90;;;;;;5023439;28;20054;-75
2021/11/19 11:08:46;;;;;;;6.45;3.30;;;13.10;99.90;;;;;;5038992;28;20328;-76
2021/11/19 11:11:40;;;;;;;4.60;2.92;;;13.00;99.90;;;;;;5039591;28;20033;-74
2021/11/19 11:14:08;;;;;;;6.80;3.40;;;13.10;99.90;;;;;;5051325;28;20131;-76
2021/11/19 11:16:37;;;;;;;10.25;3.33;;;13.10;99.90;;;;;;5067620;28;20048;-73
2021/11/19 11:19:14;;;;;;;11.77;3.33;;;13.10;99.90;;;;;;5066146;28;20029;-74
2021/11/19 11:21:58;;;;;;;8.85;2.95;;;13.20;99.90;;;;;;5066154;28;20044;-75
2021/11/19 11:24:32;;;;;;;10.15;3.40;;;13.20;99.90;;;;;;5066717;28;20029;-77
2021/11/19 11:27:56;;;;;;;9.48;3.45;;;13.20;99.90;;;;;;5047189;28;20041;-73
2021/11/19 11:30:28;;;;;;;4.28;2.65;;;13.20;99.90;;;;;;4996336;28;20079;-75
2021/11/19 11:33:29;;;;;;;4.53;2.20;;;13.30;99.90;;;;;;5028217;28;20057;-76
2021/11/19 11:36:28;;;;;;;5.78;2.97;;;13.10;99.90;;;;;;5060586;28;20112;-75
2021/11/19 11:39:08;;;;;;;3.85;2.25;;;13.10;99.90;;;;;;5040227;28;20033;-79
2021/11/19 11:41:48;;;;;;;5.63;2.67;;;13.10;99.90;;;;;;5026007;28;20117;-79
2021/11/19 11:44:21;;;;;;;7.28;3.00;;;13.10;99.90;;;;;;5028017;28;20034;-77
2021/11/19 11:47:12;;;;;;;14.40;2.95;;;13.10;99.90;;;;;;5028619;28;20097;-77
2021/11/19 11:49:46;;;;;;;6.50;2.42;;;13.20;99.90;;;;;;5026041;28;20056;-73
2021/11/19 11:52:35;;;;;;;;;;;13.20;99.90;;;;;;5039426;28;20037;-76
2021/11/19 11:55:49;;;;;;;7.30;2.33;;;13.20;99.90;;;;;;5038484;28;19924;-75
2021/11/19 11:58:42;;;;;;;3.45;2.13;;;13.20;99.90;;;;;;5038816;28;20033;-76
2021/11/19 12:01:35;;;;;;;4.00;1.85;;;13.20;99.90;;;;;;5035917;28;20061;-73
2021/11/19 12:04:47;;;;;;;2.78;1.75;;;13.20;99.90;;;;;;5065998;28;20105;-77
2021/11/19 12:07:35;;;;;;;7.55;1.67;;;13.30;99.90;;;;;;5066064;28;20024;-76
2021/11/19 12:10:16;;;;;;;7.38;2.33;;;13.20;99.90;;;;;;5041824;28;20128;-75
2021/11/19 12:12:47;;;;;;;10.85;3.75;;;13.20;99.90;;;;;;5035071;28;20145;-75
2021/11/19 12:15:27;;;;;;;18.98;2.55;;;13.30;99.90;;;;;;5025592;28;20026;-77
2021/11/19 12:18:19;;;;;;;6.00;1.63;;;13.30;99.90;;;;;;5025310;28;20038;-76
2021/11/19 12:21:09;;;;;;;8.25;1.83;;;13.40;99.90;;;;;;5035845;28;20049;-76
2021/11/19 12:23:51;;;;;;;5.18;1.90;;;13.40;99.90;;;;;;5030490;28;20069;-76
2021/11/19 12:27:10;;;;;;;3.17;1.95;;;13.40;99.90;;;;;;5049747;28;20473;-77
2021/11/19 12:29:46;;;;;;;13.70;2.28;;;13.50;99.90;;;;;;4971429;28;20051;-74
2021/11/19 12:32:39;;;;;;;8.35;2.05;;;13.50;99.90;;;;;;4965645;28;20088;-74
2021/11/19 12:35:19;;;;;;;5.80;1.40;;;13.50;99.90;;;;;;5015065;28;20062;-79
2021/11/19 12:38:09;;;;;;;10.75;1.85;;;13.50;99.90;;;;;;5026432;28;20030;-78
2021/11/19 12:40:57;;;;;;;4.22;1.92;;;13.50;99.90;;;;;;5024973;28;20030;-79
2021/11/19 12:43:43;;;;;;;11.23;2.40;;;13.50;99.90;;;;;;5025372;28;20033;-75
2021/11/19 12:46:40;;;;;;;5.22;1.50;;;13.50;99.90;;;;;;5040198;28;20033;-78
2021/11/19 12:49:54;;;;;;;2.55;1.30;;;13.40;99.90;;;;;;5038769;28;20691;-74
2021/11/19 12:52:32;;;;;;;6.38;1.35;;;13.40;99.90;;;;;;4982042;28;20046;-79
2021/11/19 12:55:10;;;;;;;2.70;1.58;;;13.40;99.90;;;;;;5029601;28;20048;-73
2021/11/19 12:58:17;;;;;;;7.28;1.58;;;13.30;99.90;;;;;;5038739;28;20033;-73
2021/11/19 13:01:01;;;;;;;12.73;1.75;;;13.30;99.90;;;;;;5043432;28;20773;-75
2021/11/19 13:03:34;;;;;;;3.22;1.52;;;13.20;99.90;;;;;;5034272;28;20101;-78
2021/11/19 13:06:26;;;;;;;8.27;2.25;;;13.20;99.90;;;;;;5024859;28;20046;-75
2021/11/19 13:08:53;;;;;;;3.95;1.63;;;13.20;99.90;;;;;;5025849;28;20029;-71
2021/11/19 13:11:56;;;;;;;8.68;1.63;;;13.20;99.90;;;;;;5045349;28;20049;-75
2021/11/19 13:14:30;;;;;;;6.32;1.05;;;13.20;99.90;;;;;;5043918;28;20037;-78